createdAt,value
2019-03-30T00:05:29.388Z,7.73
2019-03-30T00:11:36.146Z,8.00
2019-03-30T00:17:42.758Z,6.90
2019-03-30T00:23:49.309Z,7.20
2019-03-30T00:29:55.865Z,7.07
2019-03-30T00:36:02.419Z,6.70
2019-03-30T00:42:09.783Z,6.50
2019-03-30T00:48:16.379Z,6.87
2019-03-30T00:54:22.896Z,7.20
2019-03-30T01:00:29.545Z,7.40
2019-03-30T01:06:36.307Z,7.30
2019-03-30T01:12:43.423Z,7.80
2019-03-30T01:18:50.341Z,8.00
2019-03-30T01:24:57.243Z,7.50
2019-03-30T01:31:04.586Z,7.63
2019-03-30T01:37:11.444Z,7.60
2019-03-30T01:43:18.175Z,7.77
2019-03-30T01:49:24.960Z,7.67
2019-03-30T01:55:31.749Z,7.87
2019-03-30T02:01:39.215Z,7.67
2019-03-30T02:07:45.815Z,7.53
2019-03-30T02:13:52.425Z,7.57
2019-03-30T02:19:58.972Z,8.33
2019-03-30T02:26:06.000Z,8.10
2019-03-30T02:32:12.549Z,8.23
2019-03-30T02:38:19.344Z,7.77
2019-03-30T02:44:25.978Z,7.87
2019-03-30T02:50:48.128Z,8.00
2019-03-30T02:56:40.859Z,7.00
2019-03-30T03:02:47.957Z,7.13
2019-03-30T03:08:54.513Z,6.83
2019-03-30T03:15:01.136Z,7.70
2019-03-30T03:21:08.735Z,7.37
2019-03-30T03:27:15.756Z,7.67
2019-03-30T03:33:22.301Z,6.90
2019-03-30T03:39:28.894Z,7.57
2019-03-30T03:45:35.655Z,7.43
2019-03-30T03:51:42.390Z,8.67
2019-03-30T03:57:49.596Z,8.23
2019-03-30T04:03:57.796Z,8.13
2019-03-30T04:10:06.799Z,8.00
2019-03-30T04:16:13.873Z,9.33
2019-03-30T04:22:20.688Z,8.57
2019-03-30T04:28:27.330Z,9.23
2019-03-30T04:34:33.871Z,9.90
2019-03-30T04:40:40.450Z,8.73
2019-03-30T04:46:47.123Z,9.27
2019-03-30T04:52:53.650Z,9.67
2019-03-30T04:59:00.277Z,9.13
2019-03-30T05:05:07.596Z,9.30
2019-03-30T05:11:14.133Z,10.03
2019-03-30T05:17:20.700Z,9.90
2019-03-30T05:23:27.434Z,9.97
2019-03-30T05:29:34.022Z,10.27
2019-03-30T05:35:40.729Z,10.83
2019-03-30T05:41:47.369Z,10.43
2019-03-30T05:47:53.964Z,10.50
2019-03-30T05:54:00.605Z,10.60
2019-03-30T06:00:09.430Z,9.77
2019-03-30T06:06:16.137Z,10.87
2019-03-30T06:12:22.680Z,11.03
2019-03-30T06:18:29.475Z,12.40
2019-03-30T06:24:36.095Z,12.40
2019-03-30T06:30:42.708Z,11.87
2019-03-30T06:36:49.449Z,11.70
2019-03-30T06:42:56.313Z,10.20
2019-03-30T06:49:02.883Z,10.27
2019-03-30T06:55:09.766Z,9.93
2019-03-30T07:01:16.397Z,10.40
2019-03-30T07:07:24.939Z,10.17
2019-03-30T07:13:34.320Z,9.83
2019-03-30T07:19:44.704Z,9.47
2019-03-30T07:25:51.419Z,9.73
2019-03-30T07:31:57.980Z,10.20
2019-03-30T07:38:04.562Z,10.17
2019-03-30T07:44:11.177Z,9.87
2019-03-30T07:50:17.836Z,10.50
2019-03-30T07:56:24.441Z,9.97
2019-03-30T08:02:31.086Z,10.00
2019-03-30T08:08:37.696Z,9.73
2019-03-30T08:14:45.253Z,9.37
2019-03-30T08:20:52.082Z,19.07
2019-03-30T08:26:58.600Z,17.83
2019-03-30T08:33:05.188Z,10.43
2019-03-30T08:39:11.867Z,10.90
2019-03-30T08:45:18.585Z,17.87
2019-03-30T08:51:25.295Z,10.40
2019-03-30T08:57:31.971Z,9.97
2019-03-30T09:03:38.730Z,9.13
2019-03-30T09:09:45.393Z,9.33
2019-03-30T09:15:52.179Z,9.50
2019-03-30T09:21:58.715Z,9.33
2019-03-30T09:28:05.231Z,9.43
2019-03-30T09:34:11.911Z,9.90
2019-03-30T09:40:18.523Z,10.33
2019-03-30T09:46:25.056Z,11.53
2019-03-30T09:52:31.588Z,10.33
2019-03-30T09:58:38.139Z,10.60
2019-03-30T10:04:44.774Z,10.70
2019-03-30T10:10:51.362Z,11.53
2019-03-30T10:16:58.017Z,11.87
2019-03-30T10:23:04.706Z,11.10
2019-03-30T10:29:11.247Z,10.73
2019-03-30T10:35:17.824Z,10.40
2019-03-30T10:41:24.516Z,10.57
2019-03-30T10:47:30.990Z,9.27
2019-03-30T10:53:37.557Z,9.70
2019-03-30T10:59:44.210Z,11.10
2019-03-30T11:05:50.920Z,9.57
2019-03-30T11:11:57.690Z,9.70
2019-03-30T11:18:04.476Z,9.83
2019-03-30T11:24:11.067Z,9.60
2019-03-30T11:30:17.599Z,9.00
2019-03-30T11:36:24.311Z,9.13
2019-03-30T11:42:30.870Z,9.17
2019-03-30T11:48:37.907Z,8.30
2019-03-30T11:54:44.549Z,7.67
2019-03-30T12:00:51.385Z,6.47
2019-03-30T12:06:58.096Z,6.87
2019-03-30T12:13:04.646Z,6.83
2019-03-30T12:19:11.309Z,6.50
2019-03-30T12:25:17.810Z,6.53
2019-03-30T12:31:24.365Z,6.47
2019-03-30T12:37:30.956Z,6.37
2019-03-30T12:43:39.169Z,6.40
2019-03-30T12:49:46.146Z,6.53
2019-03-30T12:55:53.227Z,8.40
2019-03-30T13:02:00.329Z,7.53
2019-03-30T13:08:08.769Z,6.77
2019-03-30T13:14:15.461Z,6.83
2019-03-30T13:20:22.333Z,7.10
2019-03-30T13:26:29.393Z,7.60
2019-03-30T13:32:36.987Z,7.30
2019-03-30T13:38:43.630Z,8.90
2019-03-30T13:44:50.341Z,8.37
2019-03-30T13:50:57.006Z,8.33
2019-03-30T13:57:03.486Z,8.87
2019-03-30T14:03:10.059Z,9.00
2019-03-30T14:09:16.592Z,9.40
2019-03-30T14:15:23.580Z,8.63
2019-03-30T14:21:30.453Z,9.87
2019-03-30T14:27:37.145Z,8.70
2019-03-30T14:33:43.974Z,9.33
2019-03-30T14:39:53.100Z,8.83
2019-03-30T14:46:02.416Z,7.70
2019-03-30T14:52:09.219Z,9.10
2019-03-30T14:58:15.828Z,8.03
2019-03-30T15:04:22.620Z,8.13
2019-03-30T15:10:29.195Z,8.33
2019-03-30T15:16:35.895Z,8.17
2019-03-30T15:22:42.614Z,9.17
2019-03-30T15:28:49.522Z,8.37
2019-03-30T15:34:58.404Z,8.00
2019-03-30T15:41:04.721Z,7.93
2019-03-30T15:47:12.015Z,8.00
2019-03-30T15:53:18.539Z,8.30
2019-03-30T15:59:25.461Z,9.20
2019-03-30T16:05:32.529Z,7.37
2019-03-30T16:11:39.154Z,8.67
2019-03-30T16:17:45.728Z,9.23
2019-03-30T16:23:52.620Z,8.20
2019-03-30T16:29:59.185Z,8.13
2019-03-30T16:36:05.810Z,7.83
2019-03-30T16:42:12.403Z,8.10
2019-03-30T16:48:19.021Z,8.30
2019-03-30T16:54:25.699Z,9.00
2019-03-30T17:00:36.184Z,9.43
2019-03-30T17:06:42.864Z,8.70
2019-03-30T17:12:49.403Z,9.00
2019-03-30T17:18:56.023Z,8.50
2019-03-30T17:25:04.186Z,10.10
2019-03-30T17:31:10.869Z,9.53
2019-03-30T17:37:17.564Z,9.03
2019-03-30T17:43:24.182Z,8.83
2019-03-30T17:49:30.756Z,9.20
2019-03-30T17:55:37.311Z,8.93
2019-03-30T18:01:44.139Z,10.63
2019-03-30T18:07:50.777Z,11.67
2019-03-30T18:13:57.485Z,13.20
2019-03-30T18:20:04.340Z,12.37
2019-03-30T18:26:11.056Z,12.43
2019-03-30T18:32:18.524Z,16.70
2019-03-30T18:38:25.985Z,12.50
2019-03-30T18:44:33.093Z,12.47
2019-03-30T18:50:41.687Z,12.27
2019-03-30T18:56:51.642Z,14.47
2019-03-30T19:02:58.781Z,11.47
2019-03-30T19:09:08.737Z,11.33
2019-03-30T19:15:16.322Z,10.23
2019-03-30T19:21:24.106Z,9.53
2019-03-30T19:27:30.672Z,9.90
2019-03-30T19:33:37.391Z,9.57
2019-03-30T19:39:44.122Z,8.80
2019-03-30T19:45:50.825Z,9.43
2019-03-30T19:51:57.530Z,10.00
2019-03-30T19:58:04.222Z,9.53
2019-03-30T20:04:10.999Z,11.07
2019-03-30T20:10:17.745Z,11.67
2019-03-30T20:16:24.432Z,11.30
2019-03-30T20:22:31.046Z,11.23
2019-03-30T20:28:37.948Z,11.13
2019-03-30T20:34:44.634Z,11.13
2019-03-30T20:40:53.041Z,12.47
2019-03-30T20:47:01.971Z,11.40
2019-03-30T20:53:09.018Z,11.93
2019-03-30T20:59:15.886Z,12.80
2019-03-30T21:05:23.738Z,14.27
2019-03-30T21:11:30.435Z,14.63
2019-03-30T21:17:37.204Z,13.23
2019-03-30T21:23:43.804Z,12.83
2019-03-30T21:29:54.857Z,13.87
2019-03-30T21:35:59.157Z,11.93
2019-03-30T21:42:06.077Z,12.83
2019-03-30T21:48:12.869Z,12.57
2019-03-30T21:54:19.598Z,13.30
2019-03-30T22:00:54.270Z,13.03
2019-03-30T22:07:01.491Z,23.70
2019-03-30T22:13:08.864Z,15.17
2019-03-30T22:19:15.660Z,13.70
2019-03-30T22:25:22.308Z,14.30
2019-03-30T22:31:28.938Z,13.23
2019-03-30T22:37:35.673Z,14.37
2019-03-30T22:43:42.352Z,16.13
2019-03-30T22:49:49.110Z,17.17
2019-03-30T22:55:55.802Z,16.40
2019-03-30T23:02:02.548Z,15.70
2019-03-30T23:08:09.523Z,16.87
2019-03-30T23:14:16.357Z,16.00
2019-03-30T23:20:23.111Z,15.27
2019-03-30T23:26:29.789Z,16.73
2019-03-30T23:32:36.390Z,16.33
2019-03-30T23:38:42.985Z,15.97
2019-03-30T23:44:49.739Z,18.23
2019-03-30T23:50:56.279Z,16.93
2019-03-30T23:57:03.003Z,17.37
